Time;durP1;ratioP1;P1;durP2;ratioP2;P2;SDS_P1;SDS_P2;PMS_P1;PMS_P2;Temp;Humidity;BMP_temperature;BMP_pressure;BME280_temperature;BME280_humidity;BME280_pressure;Samples;Min_cycle;Max_cycle;Signal;HPM_P1;HPM_P2
2023/10/02 03:02:08;;;;;;;8.88;5.57;;;22.20;49.20;;;;;;5174274;23;46248;-81
2023/10/02 03:04:40;;;;;;;7.15;5.13;;;22.20;49.20;;;;;;4872956;28;45475;-82
2023/10/02 03:07:18;;;;;;;7.95;5.40;;;22.20;49.30;;;;;;4882150;28;45228;-82
2023/10/02 03:09:45;;;;;;;8.18;5.43;;;22.20;49.20;;;;;;4888566;28;45413;-83
2023/10/02 03:12:12;;;;;;;7.07;5.27;;;22.20;49.30;;;;;;4860258;28;45206;-83
2023/10/02 03:14:37;;;;;;;7.32;5.22;;;22.20;49.20;;;;;;4858727;28;45293;-83
2023/10/02 03:19:47;;;;;;;7.40;5.07;;;22.20;49.20;;;;;;4884200;28;44851;-83
2023/10/02 03:22:17;;;;;;;8.65;5.53;;;22.20;49.20;;;;;;4858138;28;45265;-83
2023/10/02 03:24:45;;;;;;;7.50;5.33;;;22.20;49.10;;;;;;4867732;28;45029;-82
2023/10/02 03:27:14;;;;;;;7.80;5.50;;;22.20;49.10;;;;;;4861510;28;45592;-83
2023/10/02 03:29:40;;;;;;;7.13;5.00;;;22.20;49.10;;;;;;4892054;28;45489;-82
2023/10/02 03:32:09;;;;;;;7.72;5.30;;;22.20;49.10;;;;;;4886008;28;46340;-83
2023/10/02 03:34:35;;;;;;;7.30;4.97;;;22.20;49.10;;;;;;4894018;28;45340;-81
2023/10/02 03:39:59;;;;;;;8.25;5.40;;;22.20;49.10;;;;;;4903027;28;45461;-83
2023/10/02 03:42:32;;;;;;;7.90;5.37;;;22.20;49.10;;;;;;4874579;28;47179;-83
2023/10/02 03:44:59;;;;;;;7.82;5.25;;;22.20;49.10;;;;;;4847999;28;44985;-83
2023/10/02 03:47:30;;;;;;;7.78;5.25;;;22.10;49.00;;;;;;4864475;28;45004;-82
2023/10/02 03:50:00;;;;;;;7.72;5.22;;;22.10;49.00;;;;;;4880078;28;44913;-83
2023/10/02 03:52:30;;;;;;;7.60;5.25;;;22.20;49.00;;;;;;4876132;28;46262;-83
2023/10/02 03:54:57;;;;;;;6.53;5.07;;;22.10;49.00;;;;;;4881219;28;45310;-82
2023/10/02 03:57:47;;;;;;;7.22;5.10;;;22.20;49.00;;;;;;4861357;28;45677;-83
2023/10/02 04:00:27;;;;;;;6.68;4.95;;;22.20;49.00;;;;;;4898435;28;44771;-81
2023/10/02 04:02:53;;;;;;;7.53;5.00;;;22.20;49.00;;;;;;4873806;28;46441;-83
2023/10/02 04:05:33;;;;;;;7.10;5.07;;;22.10;48.90;;;;;;4858036;28;45512;-83
2023/10/02 04:08:17;;;;;;;7.82;5.10;;;22.10;48.90;;;;;;4866182;28;45443;-83
2023/10/02 04:10:56;;;;;;;8.77;5.30;;;22.10;48.90;;;;;;4862064;28;45330;-83
2023/10/02 04:13:24;;;;;;;7.25;5.15;;;22.10;48.90;;;;;;4870164;28;46128;-83
2023/10/02 04:16:28;;;;;;;6.95;5.00;;;22.10;48.90;;;;;;4885047;28;45620;-81
2023/10/02 04:19:01;;;;;;;6.97;4.70;;;22.10;48.90;;;;;;4889500;28;44941;-83
2023/10/02 04:21:27;;;;;;;6.33;4.83;;;22.10;48.90;;;;;;4866551;28;45104;-83
2023/10/02 04:23:53;;;;;;;6.60;4.35;;;22.10;48.90;;;;;;4879175;28;45598;-84
2023/10/02 04:26:20;;;;;;;7.00;4.97;;;22.10;48.90;;;;;;4858247;28;45057;-84
2023/10/02 04:34:37;;;;;;;7.03;4.88;;;22.10;48.80;;;;;;4878804;28;46432;-83
2023/10/02 04:37:19;;;;;;;9.43;5.30;;;22.10;48.80;;;;;;4876044;28;45249;-83
2023/10/02 04:42:56;;;;;;;7.78;5.25;;;22.10;48.80;;;;;;4874394;28;44888;-83
2023/10/02 04:45:21;;;;;;;6.88;5.03;;;22.10;48.80;;;;;;4889337;28;46588;-83
2023/10/02 04:47:54;;;;;;;6.87;4.90;;;22.10;48.90;;;;;;4856584;28;45305;-83
2023/10/02 04:52:56;;;;;;;6.97;4.93;;;22.10;48.80;;;;;;4896011;28;45256;-83
2023/10/02 04:55:27;;;;;;;7.25;4.88;;;22.10;48.80;;;;;;4884826;28;47122;-83
2023/10/02 04:57:54;;;;;;;7.23;4.80;;;22.10;48.80;;;;;;4881166;28;45798;-83
2023/10/02 05:00:33;;;;;;;7.40;5.20;;;22.10;48.80;;;;;;4861512;28;45151;-84
2023/10/02 05:03:25;;;;;;;6.63;4.70;;;22.10;48.80;;;;;;4888311;28;45359;-82
2023/10/02 05:05:53;;;;;;;6.53;4.43;;;22.10;48.70;;;;;;4847543;28;45615;-83
2023/10/02 05:08:29;;;;;;;6.83;4.87;;;22.10;48.70;;;;;;4847326;29;44681;-84
2023/10/02 05:11:05;;;;;;;7.65;4.93;;;22.10;48.70;;;;;;4846078;28;45585;-82
2023/10/02 05:16:19;;;;;;;7.53;5.00;;;22.10;48.70;;;;;;4858518;28;46298;-83
2023/10/02 05:18:47;;;;;;;6.93;4.60;;;22.10;48.70;;;;;;4864913;28;46177;-81
2023/10/02 05:21:17;;;;;;;6.60;4.67;;;22.10;48.70;;;;;;4844141;28;45233;-83
2023/10/02 05:23:56;;;;;;;6.55;4.60;;;22.10;48.70;;;;;;4875166;29;45854;-83
2023/10/02 05:29:17;;;;;;;7.80;5.10;;;22.10;48.70;;;;;;4880499;28;45828;-83
2023/10/02 05:31:49;;;;;;;7.95;4.80;;;22.10;48.70;;;;;;4837238;28;45035;-83
2023/10/02 05:34:22;;;;;;;6.68;4.55;;;22.10;48.70;;;;;;4845435;28;44833;-83
2023/10/02 05:37:11;;;;;;;6.43;4.55;;;22.10;48.70;;;;;;4888304;28;45865;-82
2023/10/02 05:40:32;;;;;;;7.63;4.93;;;22.10;48.70;;;;;;4883043;28;45540;-83
2023/10/02 05:50:56;;;;;;;7.40;4.80;;;22.00;48.60;;;;;;4887212;28;45272;-82
2023/10/02 05:53:26;;;;;;;7.82;5.30;;;22.00;48.60;;;;;;4844655;28;45289;-83
2023/10/02 05:56:05;;;;;;;7.38;5.05;;;22.00;49.20;;;;;;4843688;28;45436;-82
2023/10/02 05:58:39;;;;;;;7.43;5.00;;;22.10;48.70;;;;;;4853544;28;45973;-82
2023/10/02 06:01:18;;;;;;;7.95;5.40;;;22.00;48.60;;;;;;4857052;28;44889;-82
2023/10/02 06:03:56;;;;;;;7.78;5.15;;;22.00;48.60;;;;;;4867893;28;45241;-83
2023/10/02 06:06:23;;;;;;;8.77;5.20;;;22.00;49.20;;;;;;4848910;28;45303;-83
2023/10/02 06:08:55;;;;;;;7.43;5.20;;;22.10;48.60;;;;;;4866551;28;47344;-81
2023/10/02 06:11:34;;;;;;;7.20;4.75;;;22.00;48.60;;;;;;4840276;28;45254;-83
2023/10/02 06:14:09;;;;;;;7.80;5.20;;;22.00;48.60;;;;;;4849421;28;45526;-83
2023/10/02 06:16:43;;;;;;;7.75;5.05;;;22.00;48.60;;;;;;4828331;28;45639;-83
2023/10/02 06:19:15;;;;;;;10.20;5.30;;;22.00;48.60;;;;;;4843986;28;46339;-83
2023/10/02 06:21:45;;;;;;;8.18;5.10;;;22.00;48.60;;;;;;4845052;28;45299;-83
2023/10/02 06:24:18;;;;;;;6.72;4.72;;;22.00;48.60;;;;;;4865817;28;45278;-83
2023/10/02 06:26:53;;;;;;;8.43;5.38;;;22.00;48.60;;;;;;4869263;28;45543;-82
2023/10/02 06:29:24;;;;;;;7.60;5.25;;;22.00;48.60;;;;;;4853602;28;46341;-83
2023/10/02 06:32:19;;;;;;;7.37;5.17;;;22.00;48.60;;;;;;4833039;28;45287;-82
2023/10/02 06:34:45;;;;;;;7.82;5.10;;;22.00;48.60;;;;;;4858936;28;45589;-83
2023/10/02 06:37:19;;;;;;;7.10;5.03;;;22.00;48.60;;;;;;4863152;28;45527;-83
2023/10/02 06:39:47;;;;;;;8.82;5.57;;;22.00;48.70;;;;;;4830947;28;46353;-83
2023/10/02 06:42:19;;;;;;;7.80;5.30;;;22.00;48.60;;;;;;4841093;29;45363;-82
2023/10/02 06:44:53;;;;;;;7.15;5.13;;;22.00;48.60;;;;;;4876931;28;45262;-83
2023/10/02 06:47:28;;;;;;;7.93;5.10;;;22.00;48.60;;;;;;4853386;28;46274;-83
2023/10/02 06:50:02;;;;;;;7.83;5.10;;;22.00;48.60;;;;;;4828598;28;47186;-81
2023/10/02 06:52:32;;;;;;;7.40;4.80;;;22.00;48.60;;;;;;4844627;28;45194;-83
2023/10/02 06:54:57;;;;;;;9.90;5.63;;;22.00;48.60;;;;;;4862834;28;44909;-82
2023/10/02 06:57:26;;;;;;;8.10;5.35;;;22.00;48.60;;;;;;4863746;29;44722;-83
2023/10/02 06:59:52;;;;;;;7.32;4.75;;;22.00;48.60;;;;;;4850581;28;46515;-83
2023/10/02 07:02:27;;;;;;;8.02;5.18;;;22.00;48.60;;;;;;4851549;28;45696;-83
2023/10/02 07:04:54;;;;;;;8.33;4.80;;;22.00;48.60;;;;;;4865953;28;45708;-83
2023/10/02 07:07:25;;;;;;;6.93;5.00;;;22.00;48.60;;;;;;4843371;28;45511;-83
2023/10/02 07:09:51;;;;;;;7.13;4.97;;;22.00;48.60;;;;;;4867125;28;46137;-82
2023/10/02 07:12:20;;;;;;;8.23;5.20;;;22.00;48.60;;;;;;4862802;28;45046;-83
2023/10/02 07:14:47;;;;;;;7.40;5.03;;;22.00;48.60;;;;;;4848391;28;46426;-82
2023/10/02 07:17:16;;;;;;;7.68;5.18;;;22.00;48.60;;;;;;4831939;28;45087;-83
2023/10/02 07:19:51;;;;;;;7.38;4.90;;;22.00;48.70;;;;;;4878423;28;46833;-82
2023/10/02 07:22:23;;;;;;;8.20;5.18;;;22.00;48.60;;;;;;4870382;28;45375;-83
2023/10/02 07:24:55;;;;;;;8.10;5.38;;;22.00;48.60;;;;;;4867218;28;45707;-83
2023/10/02 07:27:27;;;;;;;8.00;5.30;;;22.00;48.60;;;;;;4851927;28;45473;-83
2023/10/02 07:29:56;;;;;;;7.03;5.20;;;22.00;48.60;;;;;;4860773;28;46564;-83
2023/10/02 07:32:26;;;;;;;7.95;5.10;;;22.00;48.60;;;;;;4850181;28;45751;-82
2023/10/02 07:34:53;;;;;;;8.27;5.93;;;22.00;48.60;;;;;;4879091;28;45429;-82
2023/10/02 07:37:21;;;;;;;7.75;5.22;;;22.00;48.70;;;;;;4841326;28;45911;-82
2023/10/02 07:40:00;;;;;;;9.38;5.10;;;22.00;48.70;;;;;;4840998;28;46256;-83
2023/10/02 07:42:48;;;;;;;7.40;5.30;;;22.00;48.60;;;;;;4860985;28;45542;-83
2023/10/02 07:45:24;;;;;;;7.82;5.03;;;22.00;48.70;;;;;;4853395;28;45623;-83
2023/10/02 07:48:08;;;;;;;8.35;5.65;;;22.00;48.70;;;;;;4862695;28;45011;-83
2023/10/02 07:50:35;;;;;;;8.13;5.00;;;22.00;48.60;;;;;;4846737;29;47392;-82
2023/10/02 07:53:06;;;;;;;8.40;4.97;;;22.00;48.70;;;;;;4876789;28;44943;-84
2023/10/02 07:55:42;;;;;;;8.07;5.27;;;21.90;48.60;;;;;;4825314;29;45313;-83
2023/10/02 07:58:13;;;;;;;7.80;5.20;;;22.00;48.70;;;;;;4873766;28;45512;-83
2023/10/02 08:00:40;;;;;;;7.97;5.38;;;22.00;48.70;;;;;;4842841;28;46435;-83
2023/10/02 08:03:31;;;;;;;7.67;5.23;;;22.00;48.70;;;;;;4863585;28;45272;-83
2023/10/02 08:05:56;;;;;;;8.20;5.18;;;22.00;48.70;;;;;;4878257;28;45517;-83
2023/10/02 08:08:25;;;;;;;8.32;5.63;;;22.00;48.70;;;;;;4891309;28;46684;-83
2023/10/02 08:10:51;;;;;;;9.15;5.82;;;22.00;48.70;;;;;;4859599;28;46424;-83
2023/10/02 08:13:17;;;;;;;8.30;5.53;;;22.00;48.70;;;;;;4895308;28;45810;-83
2023/10/02 08:15:44;;;;;;;8.23;5.40;;;22.00;48.70;;;;;;4858035;28;45094;-83
2023/10/02 08:18:17;;;;;;;7.80;5.20;;;22.00;48.70;;;;;;4878909;28;45315;-83
2023/10/02 08:20:45;;;;;;;8.95;5.32;;;22.00;48.70;;;;;;4865044;28;46334;-83
2023/10/02 08:23:24;;;;;;;8.07;5.27;;;22.00;49.00;;;;;;4867639;28;45474;-83
2023/10/02 08:26:02;;;;;;;9.05;5.28;;;21.90;48.70;;;;;;4883748;28;45432;-85
2023/10/02 08:28:33;;;;;;;8.00;5.43;;;22.00;48.80;;;;;;4862925;28;45547;-83
2023/10/02 08:31:02;;;;;;;7.88;5.65;;;22.00;48.70;;;;;;4844760;28;45884;-82
2023/10/02 08:33:31;;;;;;;9.30;5.63;;;22.00;48.80;;;;;;4879126;28;45169;-83
2023/10/02 08:36:09;;;;;;;7.73;5.00;;;22.00;49.40;;;;;;4870207;28;45820;-83
2023/10/02 08:38:40;;;;;;;7.95;5.40;;;22.00;48.80;;;;;;4866816;28;45148;-83
2023/10/02 08:41:08;;;;;;;8.40;5.50;;;22.00;48.80;;;;;;4897113;28;46115;-83
2023/10/02 08:43:41;;;;;;;10.17;5.77;;;22.00;48.80;;;;;;4880897;28;45390;-83
2023/10/02 08:46:08;;;;;;;7.93;5.47;;;22.00;48.80;;;;;;4875112;28;44704;-83
2023/10/02 08:48:35;;;;;;;9.10;5.68;;;22.00;48.80;;;;;;4865895;28;45671;-83
2023/10/02 08:51:01;;;;;;;8.32;5.40;;;22.00;48.80;;;;;;4893618;28;45851;-82
2023/10/02 08:53:27;;;;;;;8.97;6.10;;;22.00;48.80;;;;;;4877658;28;45364;-82
2023/10/02 08:56:21;;;;;;;10.05;6.40;;;22.00;48.80;;;;;;4854958;28;46502;-83
2023/10/02 08:58:47;;;;;;;10.32;5.88;;;22.00;48.80;;;;;;4887943;28;45297;-83
2023/10/02 09:03:45;;;;;;;8.43;5.60;;;22.00;48.90;;;;;;4857585;28;45717;-83
2023/10/02 09:06:30;;;;;;;9.18;5.65;;;22.00;48.80;;;;;;4851831;28;47000;-83
2023/10/02 09:11:41;;;;;;;8.60;5.63;;;22.00;48.80;;;;;;4874622;28;46858;-82
2023/10/02 09:17:19;;;;;;;8.55;5.75;;;22.00;48.90;;;;;;4874341;28;45217;-82
2023/10/02 09:19:54;;;;;;;8.60;5.55;;;22.00;48.90;;;;;;4875100;28;44868;-82
2023/10/02 09:22:23;;;;;;;9.95;5.93;;;22.00;48.90;;;;;;4866824;28;46342;-82
2023/10/02 09:25:09;;;;;;;10.10;6.22;;;22.00;48.90;;;;;;4874283;28;46279;-83
2023/10/02 09:27:41;;;;;;;9.20;5.50;;;22.00;48.90;;;;;;4886962;28;45533;-83
2023/10/02 09:32:52;;;;;;;10.27;6.25;;;22.00;48.90;;;;;;4871669;28;46230;-82
2023/10/02 09:35:42;;;;;;;8.45;5.68;;;22.00;48.90;;;;;;4885559;28;46333;-82
2023/10/02 09:38:32;;;;;;;9.93;6.32;;;22.00;48.90;;;;;;4903953;28;45414;-83
2023/10/02 09:43:33;;;;;;;9.10;5.83;;;22.00;48.90;;;;;;4886096;28;45513;-83
2023/10/02 09:46:15;;;;;;;8.02;5.68;;;22.00;48.90;;;;;;4881738;28;46247;-83
2023/10/02 09:49:10;;;;;;;9.02;5.63;;;22.00;49.00;;;;;;4857197;28;45610;-82
2023/10/02 09:52:11;;;;;;;7.95;5.43;;;22.00;49.00;;;;;;4868158;28;45310;-83
2023/10/02 09:54:51;;;;;;;8.43;5.93;;;22.00;48.90;;;;;;4885727;28;47837;-82
2023/10/02 09:57:24;;;;;;;8.80;5.82;;;22.00;48.90;;;;;;4855978;28;45004;-83
2023/10/02 09:59:51;;;;;;;8.85;5.70;;;22.00;48.90;;;;;;4890533;28;46019;-82
2023/10/02 10:05:22;;;;;;;9.00;5.80;;;22.00;49.00;;;;;;4881979;28;48577;-84
2023/10/02 10:08:17;;;;;;;8.27;5.57;;;22.00;49.00;;;;;;4907568;28;45041;-83
2023/10/02 10:10:52;;;;;;;9.80;5.72;;;22.00;49.00;;;;;;4882883;28;46619;-82
2023/10/02 10:13:25;;;;;;;8.57;5.67;;;22.00;49.00;;;;;;4857253;28;45609;-85
2023/10/02 10:16:11;;;;;;;8.90;5.80;;;22.00;49.00;;;;;;4862522;28;47326;-82
2023/10/02 10:19:26;;;;;;;9.52;5.93;;;22.00;49.00;;;;;;4886161;28;44918;-84
2023/10/02 10:21:57;;;;;;;8.60;5.53;;;22.00;49.00;;;;;;4898465;28;45772;-83
2023/10/02 10:25:22;;;;;;;9.18;5.97;;;22.00;49.00;;;;;;4882618;28;45073;-83
2023/10/02 10:27:55;;;;;;;9.38;5.88;;;22.00;49.00;;;;;;4867860;28;47414;-83
2023/10/02 10:30:24;;;;;;;8.75;5.45;;;22.00;49.10;;;;;;4864467;28;45391;-83
2023/10/02 10:35:57;;;;;;;8.90;6.07;;;22.00;49.10;;;;;;4880937;28;45358;-83
2023/10/02 10:38:26;;;;;;;8.50;5.50;;;22.10;49.20;;;;;;4884790;28;47420;-83
2023/10/02 10:41:01;;;;;;;9.10;5.60;;;22.10;49.20;;;;;;4885580;28;45588;-82
2023/10/02 10:43:43;;;;;;;10.07;5.95;;;22.10;49.20;;;;;;4840543;28;45330;-82
2023/10/02 10:46:19;;;;;;;8.98;5.88;;;22.10;49.20;;;;;;4850694;28;45643;-83
2023/10/02 10:48:48;;;;;;;9.55;6.20;;;22.10;49.20;;;;;;4870018;28;47652;-83
2023/10/02 10:51:23;;;;;;;8.85;5.80;;;22.10;49.20;;;;;;4846514;28;45332;-80
2023/10/02 10:54:00;;;;;;;9.05;6.20;;;22.10;49.30;;;;;;4862317;28;46844;-81
2023/10/02 10:56:26;;;;;;;8.80;5.90;;;22.10;49.30;;;;;;4880662;28;45963;-81
2023/10/02 10:58:54;;;;;;;8.65;5.78;;;22.10;49.30;;;;;;4885053;28;46201;-84
2023/10/02 11:01:23;;;;;;;8.82;5.88;;;22.10;49.40;;;;;;4876028;28;46334;-84
2023/10/02 11:03:54;;;;;;;8.93;5.70;;;22.10;49.30;;;;;;4884819;28;45415;-83
2023/10/02 11:06:21;;;;;;;9.70;6.03;;;22.10;49.40;;;;;;4850320;28;45576;-83
2023/10/02 11:09:12;;;;;;;8.20;5.80;;;22.10;49.40;;;;;;4857894;28;46210;-83
2023/10/02 11:11:50;;;;;;;10.02;6.00;;;22.10;49.50;;;;;;4852386;28;46243;-83
2023/10/02 11:14:20;;;;;;;8.68;5.88;;;22.10;49.50;;;;;;4883547;28;45192;-83
2023/10/02 11:16:50;;;;;;;7.85;5.60;;;22.10;49.50;;;;;;4847465;28;45693;-83
2023/10/02 11:19:44;;;;;;;9.00;5.77;;;22.10;49.40;;;;;;4854990;28;46534;-82
2023/10/02 11:22:22;;;;;;;9.20;6.20;;;22.10;50.10;;;;;;4850519;28;45879;-84
2023/10/02 11:24:54;;;;;;;9.85;6.10;;;22.10;49.40;;;;;;4853470;28;45318;-82
2023/10/02 11:27:20;;;;;;;8.35;5.65;;;22.10;49.50;;;;;;4866342;28;46153;-83
2023/10/02 11:30:02;;;;;;;9.48;5.88;;;22.10;49.50;;;;;;4869648;28;46966;-83
2023/10/02 11:32:53;;;;;;;8.38;5.47;;;22.10;49.60;;;;;;4847742;28;45353;-83
2023/10/02 11:35:20;;;;;;;10.20;6.00;;;22.10;49.60;;;;;;4860031;28;45748;-82
2023/10/02 11:37:47;;;;;;;8.40;5.55;;;22.20;49.70;;;;;;4868278;28;45042;-83
2023/10/02 11:40:13;;;;;;;8.90;5.78;;;22.20;49.80;;;;;;4882373;28;45896;-83
2023/10/02 11:42:40;;;;;;;8.98;5.88;;;22.20;49.90;;;;;;4866521;28;45562;-83
2023/10/02 11:45:07;;;;;;;8.82;5.88;;;22.20;49.80;;;;;;4869989;28;44923;-81
2023/10/02 11:47:33;;;;;;;8.85;5.97;;;22.20;49.90;;;;;;4847058;28;45682;-83
2023/10/02 11:50:00;;;;;;;9.05;6.00;;;22.20;50.40;;;;;;4869384;28;46418;-82
2023/10/02 11:52:26;;;;;;;9.98;5.85;;;22.20;49.80;;;;;;4866970;28;45652;-83
2023/10/02 11:54:54;;;;;;;7.90;5.57;;;22.20;49.80;;;;;;4840415;28;45485;-83
2023/10/02 11:57:20;;;;;;;8.13;5.67;;;22.20;49.80;;;;;;4868380;28;45337;-83
2023/10/02 11:59:50;;;;;;;9.13;6.05;;;22.20;49.90;;;;;;4887756;28;45919;-83
2023/10/02 12:02:19;;;;;;;10.50;6.45;;;22.20;49.90;;;;;;4876995;28;45281;-86
2023/10/02 12:04:45;;;;;;;8.23;5.45;;;22.20;50.10;;;;;;4886196;28;45260;-83
2023/10/02 12:07:10;;;;;;;9.90;5.77;;;22.20;50.00;;;;;;4853125;28;45034;-83
2023/10/02 12:09:36;;;;;;;8.85;5.78;;;22.20;50.00;;;;;;4869853;28;46209;-83
2023/10/02 12:12:03;;;;;;;8.60;5.88;;;22.30;50.10;;;;;;4867315;28;45769;-82
2023/10/02 12:14:29;;;;;;;8.77;5.88;;;22.20;50.00;;;;;;4886474;28;46220;-82
2023/10/02 12:16:57;;;;;;;10.13;6.50;;;22.20;50.00;;;;;;4864655;28;45140;-83
2023/10/02 12:19:32;;;;;;;9.48;5.75;;;22.30;50.00;;;;;;4887535;28;47567;-81
2023/10/02 12:22:00;;;;;;;8.63;5.40;;;22.30;50.00;;;;;;4840612;28;46193;-81
2023/10/02 12:24:26;;;;;;;8.93;5.88;;;22.30;50.00;;;;;;4892597;28;45140;-83
2023/10/02 12:26:52;;;;;;;8.38;5.55;;;22.30;50.00;;;;;;4868933;28;45944;-83
2023/10/02 12:29:19;;;;;;;8.50;5.53;;;22.30;50.00;;;;;;4870662;28;46526;-83
2023/10/02 12:31:45;;;;;;;8.30;5.63;;;22.30;49.90;;;;;;4877362;28;45454;-84
2023/10/02 12:34:13;;;;;;;8.57;5.35;;;22.30;49.90;;;;;;4886049;28;45821;-83
2023/10/02 12:36:39;;;;;;;8.87;5.57;;;22.30;49.80;;;;;;4864925;28;45466;-81
2023/10/02 12:39:09;;;;;;;8.88;5.45;;;22.30;49.80;;;;;;4885917;28;45727;-80
2023/10/02 12:41:35;;;;;;;9.32;5.90;;;22.30;49.80;;;;;;4882972;28;45373;-80
2023/10/02 12:44:02;;;;;;;8.77;5.70;;;22.30;49.80;;;;;;4869658;28;44905;-80
2023/10/02 12:46:30;;;;;;;8.20;5.50;;;22.30;49.80;;;;;;4846615;28;45352;-80
2023/10/02 12:48:58;;;;;;;8.68;5.63;;;22.30;49.80;;;;;;4871087;28;46356;-81
2023/10/02 12:51:28;;;;;;;9.23;5.75;;;22.30;49.80;;;;;;4885198;28;45841;-80
2023/10/02 12:53:54;;;;;;;8.82;5.75;;;22.30;49.80;;;;;;4867288;28;45482;-80
2023/10/02 12:56:21;;;;;;;9.68;5.70;;;22.30;49.80;;;;;;4850524;28;44949;-80
2023/10/02 12:58:50;;;;;;;10.05;5.68;;;22.30;49.90;;;;;;4852231;28;46244;-82
2023/10/02 13:01:24;;;;;;;7.07;5.38;;;22.30;49.90;;;;;;4847641;28;45983;-80
2023/10/02 13:03:51;;;;;;;8.15;5.55;;;22.30;49.90;;;;;;4879093;28;45863;-81
2023/10/02 13:06:17;;;;;;;8.70;5.60;;;22.30;50.00;;;;;;4848650;28;45096;-81
2023/10/02 13:08:43;;;;;;;7.83;5.30;;;22.30;50.00;;;;;;4884029;28;45444;-80
2023/10/02 13:11:12;;;;;;;9.18;6.05;;;22.30;50.00;;;;;;4844719;28;45734;-80
2023/10/02 13:13:38;;;;;;;8.60;5.90;;;22.30;50.00;;;;;;4855138;28;44837;-80
2023/10/02 13:16:04;;;;;;;9.77;5.67;;;22.30;50.00;;;;;;4863009;28;46273;-81
2023/10/02 13:18:30;;;;;;;10.43;6.57;;;22.30;50.00;;;;;;4869418;28;45348;-80
2023/10/02 13:20:58;;;;;;;10.60;6.37;;;22.30;50.00;;;;;;4850830;28;45391;-81
2023/10/02 13:23:25;;;;;;;10.40;6.32;;;22.30;50.00;;;;;;4871014;28;45528;-80
2023/10/02 13:25:53;;;;;;;8.50;5.93;;;22.30;50.00;;;;;;4879401;28;45378;-81
2023/10/02 13:28:20;;;;;;;10.73;5.78;;;22.30;50.00;;;;;;4868568;28;48101;-80
2023/10/02 13:30:45;;;;;;;9.27;5.85;;;22.30;50.60;;;;;;4860320;28;45426;-81
2023/10/02 13:33:11;;;;;;;10.07;6.43;;;22.30;50.00;;;;;;4867296;28;45709;-83
2023/10/02 13:35:38;;;;;;;9.70;6.17;;;22.30;50.00;;;;;;4848773;28;45672;-80
2023/10/02 13:38:06;;;;;;;10.07;6.03;;;22.30;50.00;;;;;;4868180;28;46213;-81
2023/10/02 13:40:32;;;;;;;9.35;6.20;;;22.30;50.10;;;;;;4834793;28;45555;-79
2023/10/02 13:42:58;;;;;;;10.02;5.90;;;22.30;50.10;;;;;;4868635;28;45125;-80
2023/10/02 13:45:24;;;;;;;9.30;5.82;;;22.30;50.10;;;;;;4833385;28;45869;-81
2023/10/02 13:47:52;;;;;;;9.90;6.32;;;22.30;50.10;;;;;;4882109;28;46684;-80
2023/10/02 13:50:19;;;;;;;8.77;5.65;;;22.40;50.20;;;;;;4861980;28;45546;-80
2023/10/02 13:52:44;;;;;;;9.10;6.05;;;22.30;50.10;;;;;;4853056;28;45186;-80
2023/10/02 13:55:19;;;;;;;10.13;6.37;;;22.30;50.80;;;;;;4868450;28;45638;-80
2023/10/02 13:57:52;;;;;;;9.68;6.20;;;22.30;50.20;;;;;;4869591;28;46536;-80
2023/10/02 14:00:20;;;;;;;9.73;6.18;;;22.30;50.20;;;;;;4860339;28;46137;-80
2023/10/02 14:03:15;;;;;;;9.55;6.47;;;22.30;50.30;;;;;;4867228;28;45432;-81
2023/10/02 14:05:41;;;;;;;9.65;6.25;;;22.30;50.20;;;;;;4874107;28;45637;-80
2023/10/02 14:08:07;;;;;;;11.32;6.65;;;22.30;50.20;;;;;;4862370;28;46510;-80
2023/10/02 14:10:33;;;;;;;9.70;6.30;;;22.30;50.20;;;;;;4879725;28;46174;-80
2023/10/02 14:13:01;;;;;;;9.85;6.10;;;22.30;50.30;;;;;;4838528;28;45706;-80
2023/10/02 14:15:29;;;;;;;10.00;6.25;;;22.30;50.30;;;;;;4834003;28;45262;-78
2023/10/02 14:17:55;;;;;;;9.95;6.35;;;22.30;50.30;;;;;;4851832;28;45399;-81
2023/10/02 14:20:21;;;;;;;10.45;6.57;;;22.30;50.30;;;;;;4863479;28;46204;-80
2023/10/02 14:22:47;;;;;;;9.93;6.10;;;22.30;50.30;;;;;;4838589;28;45449;-81
2023/10/02 14:25:14;;;;;;;10.55;6.53;;;22.30;50.30;;;;;;4850030;28;45945;-81
2023/10/02 14:27:42;;;;;;;9.90;6.43;;;22.30;50.40;;;;;;4851526;28;48346;-81
2023/10/02 14:30:12;;;;;;;9.27;6.30;;;22.30;50.40;;;;;;4867425;28;46327;-80
2023/10/02 14:32:47;;;;;;;10.27;6.65;;;22.30;50.40;;;;;;4854197;28;45506;-80
2023/10/02 14:35:19;;;;;;;11.95;7.18;;;22.30;50.40;;;;;;4872075;28;45384;-80
2023/10/02 14:37:48;;;;;;;11.25;7.00;;;22.30;50.40;;;;;;4884214;28;46222;-80
2023/10/02 14:40:19;;;;;;;10.95;6.70;;;22.30;50.40;;;;;;4855986;28;46271;-81
2023/10/02 14:43:08;;;;;;;10.23;6.40;;;22.40;50.50;;;;;;4871188;28;45369;-81
2023/10/02 14:45:34;;;;;;;10.93;6.80;;;22.30;50.40;;;;;;4847952;28;47956;-81
2023/10/02 14:48:01;;;;;;;10.15;6.35;;;22.30;50.40;;;;;;4865767;28;46003;-80
2023/10/02 14:50:29;;;;;;;9.85;6.10;;;22.40;50.50;;;;;;4868179;28;45236;-79
2023/10/02 14:52:55;;;;;;;10.77;6.80;;;22.30;50.50;;;;;;4855250;28;45586;-80
2023/10/02 14:55:24;;;;;;;10.50;6.47;;;22.30;50.50;;;;;;4853804;28;45443;-81
2023/10/02 14:57:50;;;;;;;11.10;6.95;;;22.40;50.50;;;;;;4874200;28;45177;-81
2023/10/02 15:00:16;;;;;;;11.13;6.63;;;22.40;50.50;;;;;;4864679;28;45312;-81
2023/10/02 15:02:42;;;;;;;11.50;7.00;;;22.40;50.60;;;;;;4826562;28;45816;-81
2023/10/02 15:05:15;;;;;;;10.73;6.28;;;22.30;50.50;;;;;;4865312;28;45537;-80
2023/10/02 15:07:45;;;;;;;11.32;7.25;;;22.30;50.50;;;;;;4848815;28;47691;-80
2023/10/02 15:10:12;;;;;;;10.73;6.45;;;22.40;50.60;;;;;;4834013;28;44790;-81
2023/10/02 15:12:39;;;;;;;10.30;6.70;;;22.40;50.60;;;;;;4877634;28;45532;-81
2023/10/02 15:15:19;;;;;;;11.40;7.03;;;22.40;50.60;;;;;;4864218;28;44820;-80
2023/10/02 15:17:45;;;;;;;11.75;7.18;;;22.40;50.60;;;;;;4875354;28;45487;-81
2023/10/02 15:20:35;;;;;;;11.73;7.10;;;22.40;50.60;;;;;;4837427;28;45588;-81
2023/10/02 15:23:00;;;;;;;11.13;7.03;;;22.40;50.60;;;;;;4859581;28;45706;-81
2023/10/02 15:25:30;;;;;;;10.77;7.00;;;22.40;50.60;;;;;;4863805;28;45785;-81
2023/10/02 15:27:56;;;;;;;10.35;6.72;;;22.40;50.60;;;;;;4862914;28;45589;-81
2023/10/02 15:30:23;;;;;;;10.63;6.65;;;22.40;50.60;;;;;;4838616;28;45846;-81
2023/10/02 15:32:54;;;;;;;11.43;7.20;;;22.40;50.60;;;;;;4831287;28;45645;-81
2023/10/02 15:35:21;;;;;;;11.73;7.38;;;22.40;50.70;;;;;;4872278;28;45756;-81
2023/10/02 15:37:54;;;;;;;11.87;7.00;;;22.40;50.60;;;;;;4861646;28;46490;-81
2023/10/02 15:40:23;;;;;;;11.63;7.00;;;22.40;50.70;;;;;;4855468;28;45828;-82
2023/10/02 15:42:52;;;;;;;13.60;7.83;;;22.40;50.70;;;;;;4858292;28;45578;-81
2023/10/02 15:45:24;;;;;;;11.17;6.97;;;22.50;50.70;;;;;;4849668;28;45157;-81
2023/10/02 15:47:51;;;;;;;12.45;7.70;;;22.40;50.70;;;;;;4842238;28;46506;-82
2023/10/02 15:50:19;;;;;;;12.73;7.68;;;22.40;50.70;;;;;;4846678;28;45466;-81
2023/10/02 15:52:45;;;;;;;13.07;8.07;;;22.40;50.70;;;;;;4848031;28;45572;-81
2023/10/02 15:55:12;;;;;;;12.67;8.10;;;22.40;50.70;;;;;;4875285;28;45727;-81
2023/10/02 15:57:42;;;;;;;12.52;7.75;;;22.40;51.30;;;;;;4842337;28;45834;-80
2023/10/02 16:00:15;;;;;;;13.05;8.15;;;22.40;50.70;;;;;;4848293;28;45444;-81
2023/10/02 16:02:45;;;;;;;15.35;8.85;;;22.40;50.70;;;;;;4884157;28;45325;-81
2023/10/02 16:05:11;;;;;;;14.48;8.32;;;22.50;50.80;;;;;;4854314;28;45774;-80
2023/10/02 16:07:38;;;;;;;14.60;8.83;;;22.40;50.70;;;;;;4858093;28;46280;-81
2023/10/02 16:10:10;;;;;;;12.70;8.32;;;22.50;50.80;;;;;;4886448;28;45801;-79
2023/10/02 16:12:38;;;;;;;13.65;8.65;;;22.50;51.40;;;;;;4872353;28;45085;-81
2023/10/02 16:15:10;;;;;;;15.60;8.75;;;22.50;50.80;;;;;;4854931;28;45440;-80
2023/10/02 16:17:37;;;;;;;15.75;9.32;;;22.50;50.80;;;;;;4854958;28;47283;-81
2023/10/02 16:20:06;;;;;;;16.30;9.73;;;22.40;50.70;;;;;;4905142;28;46387;-80
2023/10/02 16:22:32;;;;;;;15.98;9.30;;;22.50;50.80;;;;;;4870774;28;45733;-81
2023/10/02 16:24:59;;;;;;;16.17;9.03;;;22.50;50.90;;;;;;4873818;28;45681;-81
2023/10/02 16:27:26;;;;;;;14.23;8.77;;;22.50;50.80;;;;;;4871668;28;45945;-81
2023/10/02 16:29:52;;;;;;;15.27;9.00;;;22.50;50.90;;;;;;4874383;28;45761;-81
2023/10/02 16:32:18;;;;;;;15.55;9.73;;;22.50;50.90;;;;;;4865543;28;45525;-81
2023/10/02 16:34:43;;;;;;;16.13;9.85;;;22.50;50.90;;;;;;4875051;28;45828;-81
2023/10/02 16:37:09;;;;;;;15.55;9.50;;;22.50;50.80;;;;;;4868247;28;45380;-82
2023/10/02 16:39:36;;;;;;;16.73;9.43;;;22.50;51.00;;;;;;4887816;28;45467;-81
2023/10/02 16:42:03;;;;;;;17.70;9.70;;;22.50;50.90;;;;;;4878297;28;45525;-81
2023/10/02 16:44:29;;;;;;;15.80;9.63;;;22.50;50.90;;;;;;4875922;28;45821;-80
2023/10/02 16:46:58;;;;;;;15.30;9.35;;;22.50;50.90;;;;;;4867011;28;46851;-80
2023/10/02 16:49:25;;;;;;;16.00;9.77;;;22.50;50.90;;;;;;4871509;28;45032;-80
2023/10/02 16:51:53;;;;;;;18.52;10.60;;;22.50;50.90;;;;;;4861011;28;45989;-81
2023/10/02 16:54:19;;;;;;;16.83;10.20;;;22.50;50.90;;;;;;4888771;28;45245;-81
2023/10/02 16:56:45;;;;;;;16.88;9.82;;;22.50;50.90;;;;;;4886201;28;45342;-81